Bonaire, Georgia
Current Conditions -  °F | °C
As of 10:58 PM on Wednesday 22 Oct 2014 (Local Time) from KWRB Reporting Station
Clear Clear  
Wind Chill: 49°   Ceiling: Unl
Heat Index: 49°   Visibility: 10mi
Dew Point: 48°   Wind: 1mph
Humidity: 94%   Direction: 120°ESE
Pressure: 30.09"   Gusts: NA
Location:  32.54°N, 83.6°W
Report Text: KWRB 230258Z AUTO 12001KT 10SM CLR 10/09 A3009 RMK AO2 SLP192 T00970087 52011
Loading
Personal Weather Stations






























Interactive Weather Map
Tropical Storm Tracking
New forecast layout! Learn more

10-Day Weather Forecast

Advertisements
Track Severe Weather on mobile